createdAt,value
2017-05-24T00:01:07.363Z,15.94
2017-05-24T00:01:47.809Z,15.84
2017-05-24T00:02:28.223Z,15.9
2017-05-24T00:03:08.612Z,15.94
2017-05-24T00:03:48.999Z,15.88
2017-05-24T00:04:29.446Z,15.92
2017-05-24T00:05:09.843Z,15.91
2017-05-24T00:05:50.257Z,15.92
2017-05-24T00:06:30.619Z,15.84
2017-05-24T00:07:11.070Z,15.9
2017-05-24T00:07:51.479Z,15.88
2017-05-24T00:08:31.890Z,15.9
2017-05-24T00:09:12.289Z,15.9
2017-05-24T00:09:52.700Z,15.88
2017-05-24T00:10:33.171Z,15.81
2017-05-24T00:11:13.568Z,15.78
2017-05-24T00:11:53.994Z,15.75
2017-05-24T00:12:34.487Z,15.81
2017-05-24T00:13:14.862Z,15.8
2017-05-24T00:13:55.351Z,15.8
2017-05-24T00:14:35.748Z,15.76
2017-05-24T00:15:16.156Z,15.8
2017-05-24T00:15:56.574Z,15.67
2017-05-24T00:16:37.036Z,15.72
2017-05-24T00:17:17.464Z,15.69
2017-05-24T00:17:57.836Z,15.73
2017-05-24T00:18:38.296Z,15.65
2017-05-24T00:19:18.752Z,15.62
2017-05-24T00:19:59.157Z,15.55
2017-05-24T00:20:39.545Z,15.67
2017-05-24T00:21:19.987Z,15.65
2017-05-24T00:22:00.379Z,15.59
2017-05-24T00:22:40.768Z,15.52
2017-05-24T00:23:21.197Z,15.5
2017-05-24T00:24:01.636Z,15.48
2017-05-24T00:24:42.082Z,15.48
2017-05-24T00:25:22.485Z,15.37
2017-05-24T00:26:02.870Z,15.37
2017-05-24T00:26:43.303Z,15.35
2017-05-24T00:27:23.753Z,15.27
2017-05-24T00:28:04.160Z,15.19
2017-05-24T00:28:44.546Z,15.26
2017-05-24T00:29:24.978Z,15.25
2017-05-24T00:30:05.384Z,15.25
2017-05-24T00:30:45.808Z,15.07
2017-05-24T00:31:26.228Z,15.12
2017-05-24T00:32:07.116Z,15.14
2017-05-24T00:32:47.518Z,15.1
2017-05-24T00:33:27.954Z,15.08
2017-05-24T00:34:08.397Z,15.08
2017-05-24T00:34:48.891Z,15.07
2017-05-24T00:35:29.294Z,15.02
2017-05-24T00:36:09.708Z,15.08
2017-05-24T00:36:50.097Z,15.11
2017-05-24T00:37:30.533Z,15.1
2017-05-24T00:38:11.005Z,15.15
2017-05-24T00:38:51.339Z,15.05
2017-05-24T00:39:31.785Z,15.11
2017-05-24T00:40:12.174Z,15.1
2017-05-24T00:40:52.629Z,15.08
2017-05-24T00:41:33.039Z,15.11
2017-05-24T00:42:13.475Z,15.14
2017-05-24T00:42:53.949Z,15.17
2017-05-24T00:43:34.380Z,15.22
2017-05-24T00:44:14.836Z,15.08
2017-05-24T00:44:55.242Z,15.17
2017-05-24T00:45:35.626Z,15.17
2017-05-24T00:46:16.057Z,15.1
2017-05-24T00:46:56.453Z,15.19
2017-05-24T00:47:36.859Z,15.23
2017-05-24T00:48:17.258Z,15.19
2017-05-24T00:48:57.674Z,15.18
2017-05-24T00:49:38.097Z,15.26
2017-05-24T00:50:18.506Z,15.25
2017-05-24T00:50:58.912Z,15.18
2017-05-24T00:51:39.334Z,15.32
2017-05-24T00:52:19.746Z,15.35
2017-05-24T00:53:00.150Z,15.35
2017-05-24T00:53:40.570Z,15.37
2017-05-24T00:54:21.008Z,15.33
2017-05-24T00:55:01.404Z,15.44
2017-05-24T00:55:41.855Z,15.43
2017-05-24T00:56:22.259Z,15.37
2017-05-24T00:57:02.659Z,15.39
2017-05-24T00:57:43.122Z,15.35
2017-05-24T00:58:24.146Z,15.41
2017-05-24T00:59:04.638Z,15.37
2017-05-24T00:59:45.724Z,15.29
2017-05-24T01:00:26.186Z,15.33
2017-05-24T01:01:07.628Z,15.3
2017-05-24T01:01:49.827Z,15.29
2017-05-24T01:02:30.577Z,15.25
2017-05-24T01:03:11.011Z,15.27
2017-05-24T01:03:51.917Z,15.32
2017-05-24T01:04:32.322Z,15.3
2017-05-24T01:05:12.727Z,15.26
2017-05-24T01:05:53.171Z,15.27
2017-05-24T01:06:33.630Z,15.26
2017-05-24T01:07:14.072Z,15.35
2017-05-24T01:07:54.610Z,15.29
2017-05-24T01:08:35.061Z,15.32
2017-05-24T01:09:15.661Z,15.29
2017-05-24T01:09:56.124Z,15.32
2017-05-24T01:10:36.504Z,15.29
2017-05-24T01:11:16.887Z,15.3
2017-05-24T01:11:57.287Z,15.32
2017-05-24T01:12:37.739Z,15.29
2017-05-24T01:13:18.131Z,15.22
2017-05-24T01:13:58.555Z,15.29
2017-05-24T01:14:38.992Z,15.32
2017-05-24T01:15:19.369Z,15.22
2017-05-24T01:16:00.606Z,15.29
2017-05-24T01:16:41.061Z,15.22
2017-05-24T01:17:21.465Z,15.23
2017-05-24T01:18:01.921Z,15.27
2017-05-24T01:18:42.341Z,15.18
2017-05-24T01:19:22.804Z,15.22
2017-05-24T01:20:03.189Z,15.29
2017-05-24T01:20:44.360Z,15.3
2017-05-24T01:21:24.790Z,15.26
2017-05-24T01:22:05.210Z,15.29
2017-05-24T01:22:45.639Z,15.29
2017-05-24T01:23:26.046Z,15.32
2017-05-24T01:24:07.363Z,15.23
2017-05-24T01:24:47.798Z,15.32
2017-05-24T01:25:28.149Z,15.3
2017-05-24T01:26:08.625Z,15.26
2017-05-24T01:26:49.081Z,15.23
2017-05-24T01:27:30.422Z,15.33
2017-05-24T01:28:10.857Z,15.23
2017-05-24T01:28:51.243Z,15.22
2017-05-24T01:29:31.691Z,15.26
2017-05-24T01:30:12.103Z,15.29
2017-05-24T01:30:52.550Z,15.27
2017-05-24T01:31:33.548Z,15.29
2017-05-24T01:32:13.985Z,15.35
2017-05-24T01:32:54.411Z,15.32
2017-05-24T01:33:34.837Z,15.25
2017-05-24T01:34:15.246Z,15.33
2017-05-24T01:34:56.644Z,15.33
2017-05-24T01:35:37.034Z,15.36
2017-05-24T01:36:17.445Z,15.35
2017-05-24T01:36:57.865Z,15.23
2017-05-24T01:37:40.138Z,15.3
2017-05-24T01:38:21.121Z,15.37
2017-05-24T01:40:09.526Z,15.27
2017-05-24T01:40:49.952Z,15.33
2017-05-24T01:41:30.366Z,15.22
2017-05-24T01:42:10.804Z,15.23
2017-05-24T01:42:51.285Z,15.19
2017-05-24T01:43:31.673Z,15.29
2017-05-24T01:44:13.049Z,15.25
2017-05-24T01:44:54.276Z,15.3
2017-05-24T01:45:34.782Z,15.29
2017-05-24T01:46:15.131Z,15.27
2017-05-24T01:48:02.601Z,15.27
2017-05-24T01:48:43.131Z,15.27
2017-05-24T01:49:23.568Z,15.29
2017-05-24T01:50:04.866Z,15.25
2017-05-24T01:50:45.256Z,15.15
2017-05-24T01:52:59.651Z,15.27
2017-05-24T01:54:52.174Z,15.26
2017-05-24T01:55:35.400Z,15.22
2017-05-24T01:56:15.789Z,15.22
2017-05-24T01:56:56.225Z,15.17
2017-05-24T01:57:36.717Z,15.23
2017-05-24T01:58:17.095Z,15.12
2017-05-24T01:58:58.537Z,15.25
2017-05-24T02:00:47.856Z,15.27
2017-05-24T02:03:11.377Z,15.23
2017-05-24T02:03:52.372Z,15.19
2017-05-24T02:04:33.376Z,15.15
2017-05-24T02:05:13.839Z,15.12
2017-05-24T02:05:54.235Z,15.23
2017-05-24T02:06:34.684Z,15.04
2017-05-24T02:07:15.114Z,15.17
2017-05-24T02:07:55.571Z,15.07
2017-05-24T02:08:36.531Z,15.08
2017-05-24T02:09:17.521Z,15
2017-05-24T02:09:57.889Z,15.07
2017-05-24T02:10:38.346Z,15.04
2017-05-24T02:11:18.764Z,14.96
2017-05-24T02:11:59.224Z,14.99
2017-05-24T02:12:39.614Z,14.93
2017-05-24T02:13:20.009Z,14.94
2017-05-24T02:14:00.424Z,14.87
2017-05-24T02:14:40.852Z,14.81
2017-05-24T02:16:58.979Z,14.79
2017-05-24T02:19:25.171Z,14.73
2017-05-24T02:20:06.462Z,14.73
2017-05-24T02:20:48.665Z,14.7
2017-05-24T02:21:29.714Z,14.59
2017-05-24T02:22:11.660Z,14.63
2017-05-24T02:22:52.033Z,14.67
2017-05-24T02:23:32.508Z,14.63
2017-05-24T02:24:12.907Z,14.61
2017-05-24T02:24:53.308Z,14.53
2017-05-24T02:25:33.719Z,14.52
2017-05-24T02:26:14.153Z,14.48
2017-05-24T02:26:54.570Z,14.52
2017-05-24T02:27:34.999Z,14.49
2017-05-24T02:28:15.428Z,14.49
2017-05-24T02:28:55.880Z,14.48
2017-05-24T02:29:36.303Z,14.36
2017-05-24T02:30:16.752Z,14.37
2017-05-24T02:30:57.166Z,14.37
2017-05-24T02:31:37.573Z,14.33
2017-05-24T02:32:17.971Z,14.28
2017-05-24T02:32:58.384Z,14.18
2017-05-24T02:33:38.794Z,14.13
2017-05-24T02:34:19.239Z,14.2
2017-05-24T02:34:59.681Z,14.04
2017-05-24T02:35:40.119Z,14
2017-05-24T02:36:20.511Z,13.94
2017-05-24T02:37:00.945Z,13.98
2017-05-24T02:37:41.338Z,13.86
2017-05-24T02:38:21.790Z,13.93
2017-05-24T02:39:02.187Z,13.91
2017-05-24T02:39:43.238Z,13.93
2017-05-24T02:40:23.658Z,13.87
2017-05-24T02:41:04.055Z,13.82
2017-05-24T02:41:44.493Z,13.75
2017-05-24T02:42:24.875Z,13.71
2017-05-24T02:43:05.311Z,13.68
2017-05-24T02:43:45.727Z,13.75
2017-05-24T02:44:26.167Z,13.75
2017-05-24T02:45:06.573Z,13.62
2017-05-24T02:45:46.986Z,13.67
2017-05-24T02:46:27.385Z,13.62
2017-05-24T02:47:07.787Z,13.68
2017-05-24T02:47:48.192Z,13.58
2017-05-24T02:48:28.580Z,13.6
2017-05-24T02:49:09.009Z,13.62
2017-05-24T02:49:49.418Z,13.67
2017-05-24T02:50:29.811Z,13.76
2017-05-24T02:51:10.262Z,13.76
2017-05-24T02:51:50.683Z,13.75
2017-05-24T02:52:31.084Z,13.68
2017-05-24T02:53:11.606Z,13.7
2017-05-24T02:53:52.035Z,13.78
2017-05-24T02:54:32.478Z,13.7
2017-05-24T02:55:12.857Z,13.83
2017-05-24T02:55:53.358Z,13.7
2017-05-24T02:56:33.773Z,13.68
2017-05-24T02:57:14.167Z,13.7
2017-05-24T02:57:54.580Z,13.7
2017-05-24T02:58:34.989Z,13.7
2017-05-24T02:59:15.401Z,13.71
2017-05-24T02:59:55.816Z,13.7
2017-05-24T03:00:36.269Z,13.71
2017-05-24T03:01:16.704Z,13.73
2017-05-24T03:01:57.112Z,13.71
2017-05-24T03:02:37.561Z,13.76
2017-05-24T03:03:17.975Z,13.75
2017-05-24T03:03:58.372Z,13.83
2017-05-24T03:04:38.807Z,13.86
2017-05-24T03:05:19.190Z,13.7
2017-05-24T03:05:59.664Z,13.76
2017-05-24T03:06:40.069Z,13.85
2017-05-24T03:07:20.484Z,13.75
2017-05-24T03:08:00.904Z,13.71
2017-05-24T03:08:41.296Z,13.68
2017-05-24T03:09:22.397Z,13.76
2017-05-24T03:10:02.800Z,13.78
2017-05-24T03:10:43.195Z,13.8
2017-05-24T03:11:23.657Z,13.75
2017-05-24T03:12:04.078Z,13.75
2017-05-24T03:12:44.503Z,13.73
2017-05-24T03:13:25.925Z,13.7
2017-05-24T03:14:07.151Z,13.6
2017-05-24T03:14:47.552Z,13.62
2017-05-24T03:15:30.742Z,13.64
2017-05-24T03:16:11.167Z,13.6
2017-05-24T03:16:53.137Z,13.5
2017-05-24T03:17:35.248Z,13.55
2017-05-24T03:18:15.660Z,13.49
2017-05-24T03:18:56.048Z,13.47
2017-05-24T03:19:37.221Z,13.42
2017-05-24T03:20:18.234Z,13.3
2017-05-24T03:20:58.715Z,13.37
2017-05-24T03:21:39.121Z,13.28
2017-05-24T03:22:19.573Z,13.3
2017-05-24T03:22:59.998Z,13.24
2017-05-24T03:23:40.407Z,13.16
2017-05-24T03:24:20.817Z,13.13
2017-05-24T03:25:01.229Z,13.17
2017-05-24T03:25:41.611Z,13.11
2017-05-24T03:26:22.062Z,13.16
2017-05-24T03:27:02.415Z,13.11
2017-05-24T03:27:42.841Z,13.06
2017-05-24T03:28:23.266Z,13.02
2017-05-24T03:29:03.638Z,13.01
2017-05-24T03:29:44.092Z,12.95
2017-05-24T03:30:24.485Z,12.93
2017-05-24T03:31:04.899Z,12.93
2017-05-24T03:31:45.298Z,12.93
2017-05-24T03:32:25.747Z,12.83
2017-05-24T03:33:06.162Z,12.83
2017-05-24T03:33:46.515Z,12.84
2017-05-24T03:34:26.976Z,12.8
2017-05-24T03:35:07.400Z,12.75
2017-05-24T03:35:47.816Z,12.73
2017-05-24T03:36:28.281Z,12.7
2017-05-24T03:37:08.673Z,12.65
2017-05-24T03:37:49.070Z,12.65
2017-05-24T03:38:29.482Z,12.69
2017-05-24T03:39:09.883Z,12.72
2017-05-24T03:39:50.339Z,12.68
2017-05-24T03:40:31.686Z,12.54
2017-05-24T03:41:12.065Z,12.55
2017-05-24T03:41:52.480Z,12.55
2017-05-24T03:42:32.837Z,12.55
2017-05-24T03:43:13.247Z,12.48
2017-05-24T03:43:53.644Z,12.48
2017-05-24T03:44:34.639Z,12.45
2017-05-24T03:45:15.094Z,12.47
2017-05-24T03:45:55.503Z,12.44
2017-05-24T03:46:35.926Z,12.35
2017-05-24T03:47:16.356Z,12.36
2017-05-24T03:47:56.778Z,12.37
2017-05-24T03:48:37.190Z,12.21
2017-05-24T03:49:17.582Z,12.28
2017-05-24T03:49:58.036Z,12.29
2017-05-24T03:50:38.464Z,12.28
2017-05-24T03:51:18.875Z,12.29
2017-05-24T03:51:59.318Z,12.28
2017-05-24T03:52:39.717Z,12.23
2017-05-24T03:53:20.124Z,12.2
2017-05-24T03:54:00.581Z,12.21
2017-05-24T03:54:40.986Z,12.17
2017-05-24T03:55:21.405Z,12.18
2017-05-24T03:56:01.862Z,12.15
2017-05-24T03:56:42.262Z,12.21
2017-05-24T03:57:22.634Z,12.15
2017-05-24T03:58:03.061Z,12.18
2017-05-24T03:58:43.478Z,12.14
2017-05-24T03:59:23.886Z,12.1
2017-05-24T04:00:04.364Z,12.14
2017-05-24T04:00:44.718Z,12
2017-05-24T04:01:25.129Z,12.08
2017-05-24T04:02:05.568Z,12.1
2017-05-24T04:02:46.012Z,11.99
2017-05-24T04:03:27.242Z,11.97
2017-05-24T04:04:07.697Z,12.02
2017-05-24T04:04:48.081Z,12.03
2017-05-24T04:05:28.466Z,11.89
2017-05-24T04:06:08.883Z,11.97
2017-05-24T04:06:49.317Z,11.83
2017-05-24T04:07:29.745Z,11.89
2017-05-24T04:08:10.198Z,11.83
2017-05-24T04:08:50.575Z,11.81
2017-05-24T04:09:31.139Z,11.86
2017-05-24T04:10:11.638Z,11.85
2017-05-24T04:10:54.880Z,11.86
2017-05-24T04:11:35.318Z,11.95
2017-05-24T04:12:15.687Z,11.93
2017-05-24T04:12:56.130Z,11.86
2017-05-24T04:13:36.490Z,11.83
2017-05-24T04:14:16.968Z,11.88
2017-05-24T04:14:57.378Z,11.85
2017-05-24T04:15:37.849Z,11.8
2017-05-24T04:16:18.238Z,11.83
2017-05-24T04:16:58.660Z,11.91
2017-05-24T04:17:39.055Z,11.93
2017-05-24T04:18:19.464Z,11.86
2017-05-24T04:18:59.877Z,11.95
2017-05-24T04:19:40.302Z,11.85
2017-05-24T04:20:20.725Z,11.93
2017-05-24T04:21:01.188Z,11.97
2017-05-24T04:21:41.565Z,11.96
2017-05-24T04:22:21.994Z,11.89
2017-05-24T04:23:59.654Z,11.99
2017-05-24T04:24:40.076Z,12.03
2017-05-24T04:25:20.529Z,11.91
2017-05-24T04:26:00.924Z,11.91
2017-05-24T04:27:53.721Z,12.02
2017-05-24T04:28:34.146Z,11.89
2017-05-24T04:29:14.573Z,12
2017-05-24T04:29:55.006Z,12
2017-05-24T04:30:35.414Z,12.1
2017-05-24T04:31:15.837Z,11.96
2017-05-24T04:31:56.272Z,12.07
2017-05-24T04:32:36.714Z,12.03
2017-05-24T04:33:17.100Z,12.03
2017-05-24T04:33:57.469Z,12.08
2017-05-24T04:34:37.885Z,11.99
2017-05-24T04:35:18.283Z,12.02
2017-05-24T04:35:58.689Z,12.03
2017-05-24T04:36:39.132Z,12.11
2017-05-24T04:37:19.536Z,12.15
2017-05-24T04:37:59.940Z,12.08
2017-05-24T04:38:40.359Z,12.07
2017-05-24T04:39:20.733Z,12.17
2017-05-24T04:40:01.145Z,12.15
2017-05-24T04:40:41.551Z,12.2
2017-05-24T04:41:21.972Z,12.2
2017-05-24T04:42:02.414Z,12.36
2017-05-24T04:42:42.790Z,12.23
2017-05-24T04:43:23.268Z,12.36
2017-05-24T04:44:03.736Z,12.39
2017-05-24T04:44:44.075Z,12.37
2017-05-24T04:45:24.536Z,12.5
2017-05-24T04:46:04.938Z,12.58
2017-05-24T04:46:45.355Z,12.63
2017-05-24T04:47:25.746Z,12.76
2017-05-24T04:48:06.201Z,12.84
2017-05-24T04:48:46.632Z,12.9
2017-05-24T04:49:27.080Z,13.03
2017-05-24T04:50:07.509Z,13.13
2017-05-24T04:50:47.886Z,13.11
2017-05-24T04:51:28.351Z,13.27
2017-05-24T04:52:08.735Z,13.3
2017-05-24T04:52:49.095Z,13.39
2017-05-24T04:53:29.544Z,13.33
2017-05-24T04:54:09.953Z,13.54
2017-05-24T04:54:50.315Z,13.62
2017-05-24T04:55:30.769Z,13.64
2017-05-24T04:56:11.200Z,13.82
2017-05-24T04:56:51.613Z,13.89
2017-05-24T04:57:32.082Z,13.94
2017-05-24T04:58:12.460Z,14.03
2017-05-24T04:58:52.890Z,14.16
2017-05-24T04:59:33.290Z,14.2
2017-05-24T05:00:13.755Z,14.33
2017-05-24T05:00:54.146Z,14.37
2017-05-24T05:01:34.608Z,14.44
2017-05-24T05:02:15.040Z,14.45
2017-05-24T05:02:55.478Z,14.51
2017-05-24T05:03:35.918Z,14.63
2017-05-24T05:04:17.213Z,14.66
2017-05-24T05:04:57.656Z,14.68
2017-05-24T05:05:38.041Z,14.71
2017-05-24T05:06:18.433Z,14.82
2017-05-24T05:06:58.829Z,14.92
2017-05-24T05:07:40.998Z,14.99
2017-05-24T05:08:21.604Z,15.08
2017-05-24T05:09:02.200Z,15.07
2017-05-24T05:09:42.654Z,15.07
2017-05-24T05:10:23.054Z,15.23
2017-05-24T05:11:03.467Z,15.29
2017-05-24T05:11:43.911Z,15.36
2017-05-24T05:12:24.306Z,15.43
2017-05-24T05:14:22.178Z,15.54
2017-05-24T05:15:02.592Z,15.65
2017-05-24T05:15:43.017Z,15.59
2017-05-24T05:16:23.418Z,15.65
2017-05-24T05:17:03.888Z,15.69
2017-05-24T05:17:44.368Z,15.76
2017-05-24T05:18:24.722Z,15.91
2017-05-24T05:19:05.189Z,15.96
2017-05-24T05:19:45.598Z,15.85
2017-05-24T05:20:28.256Z,16.03
2017-05-24T05:21:08.678Z,16.02
2017-05-24T05:21:49.118Z,16.09
2017-05-24T05:22:29.543Z,16.24
2017-05-24T05:23:10.840Z,16.21
2017-05-24T05:23:51.372Z,16.37
2017-05-24T05:24:32.018Z,16.47
2017-05-24T05:25:12.433Z,16.5
2017-05-24T05:25:52.819Z,16.49
2017-05-24T05:26:33.273Z,16.65
2017-05-24T05:27:13.651Z,16.65
2017-05-24T05:27:54.100Z,16.73
2017-05-24T05:28:34.578Z,16.83
2017-05-24T05:29:15.035Z,16.91
2017-05-24T05:29:56.170Z,16.91
2017-05-24T05:30:39.420Z,17.12
2017-05-24T05:31:21.335Z,16.99
2017-05-24T05:32:01.724Z,17.13
2017-05-24T05:32:47.695Z,17.17
2017-05-24T05:33:29.771Z,17.24
2017-05-24T05:34:11.207Z,17.23
2017-05-24T05:38:39.420Z,17.47
2017-05-24T05:39:20.389Z,17.59
2017-05-24T05:40:00.817Z,17.66
2017-05-24T05:40:41.225Z,17.76
2017-05-24T05:41:21.693Z,17.78
2017-05-24T05:42:02.094Z,17.86
2017-05-24T05:42:42.474Z,17.97
2017-05-24T05:43:22.877Z,18.02
2017-05-24T05:44:03.373Z,17.95
2017-05-24T05:44:44.411Z,18.06
2017-05-24T05:45:24.825Z,17.93
2017-05-24T05:46:05.232Z,17.94
2017-05-24T05:46:45.676Z,17.98
2017-05-24T05:47:26.059Z,17.93
2017-05-24T05:48:06.502Z,17.93
2017-05-24T05:48:47.003Z,17.88
2017-05-24T05:49:27.423Z,17.98
2017-05-24T05:50:07.845Z,18.03
2017-05-24T05:50:48.283Z,17.94
2017-05-24T05:51:28.672Z,18.03
2017-05-24T05:52:09.069Z,18.05
2017-05-24T05:52:49.466Z,18.06
2017-05-24T05:53:29.838Z,17.97
2017-05-24T05:54:10.302Z,18.02
2017-05-24T05:54:50.673Z,18
2017-05-24T05:55:31.110Z,18.06
2017-05-24T05:56:11.479Z,18.12
2017-05-24T05:56:52.728Z,18.23
2017-05-24T05:57:33.165Z,18.26
2017-05-24T05:58:13.611Z,18.33
2017-05-24T05:58:54.665Z,18.31
2017-05-24T05:59:35.080Z,18.37
2017-05-24T06:00:15.497Z,18.42
2017-05-24T06:00:55.930Z,18.41
2017-05-24T06:01:39.023Z,18.46
2017-05-24T06:02:19.428Z,18.55
2017-05-24T06:02:59.819Z,18.45
2017-05-24T06:03:40.267Z,18.53
2017-05-24T06:04:20.661Z,18.64
2017-05-24T06:05:01.135Z,18.61
2017-05-24T06:05:41.571Z,18.68
2017-05-24T06:06:21.964Z,18.73
2017-05-24T06:07:02.392Z,18.71
2017-05-24T06:07:42.813Z,18.73
2017-05-24T06:08:23.250Z,18.92
2017-05-24T06:09:03.671Z,18.85
2017-05-24T06:09:44.046Z,19.01
2017-05-24T06:10:24.493Z,19.01
2017-05-24T06:11:04.946Z,19.15
2017-05-24T06:11:45.351Z,19.12
2017-05-24T06:12:25.789Z,19.16
2017-05-24T06:13:06.309Z,19.15
2017-05-24T06:13:46.761Z,19.17
2017-05-24T06:14:27.305Z,19.35
2017-05-24T06:15:08.920Z,19.35
2017-05-24T06:15:49.172Z,19.41
2017-05-24T06:16:29.597Z,19.52
2017-05-24T06:17:10.027Z,19.6
2017-05-24T06:17:50.502Z,19.71
2017-05-24T06:18:30.926Z,19.7
2017-05-24T06:19:11.817Z,19.77
2017-05-24T06:19:52.155Z,19.84
2017-05-24T06:20:32.843Z,19.85
2017-05-24T06:21:13.305Z,19.82
2017-05-24T06:21:53.788Z,19.87
2017-05-24T06:22:34.219Z,19.9
2017-05-24T06:23:14.639Z,19.94
2017-05-24T06:23:55.036Z,20.02
2017-05-24T06:24:35.575Z,19.97
2017-05-24T06:25:16.119Z,20.11
2017-05-24T06:25:56.493Z,20.04
2017-05-24T06:26:36.926Z,20.08
2017-05-24T06:27:17.354Z,20.04
2017-05-24T06:27:57.799Z,19.96
2017-05-24T06:28:38.192Z,19.89
2017-05-24T06:29:18.604Z,19.66
2017-05-24T06:29:59.035Z,19.64
2017-05-24T06:30:39.440Z,19.63
2017-05-24T06:31:19.880Z,19.57
2017-05-24T06:32:00.273Z,19.56
2017-05-24T06:32:40.671Z,19.45
2017-05-24T06:33:21.148Z,19.45
2017-05-24T06:34:02.504Z,19.45
2017-05-24T06:34:42.952Z,19.6
2017-05-24T06:35:23.417Z,19.41
2017-05-24T06:36:03.902Z,19.39
2017-05-24T06:37:41.574Z,19.42
2017-05-24T06:38:21.999Z,19.52
2017-05-24T06:39:02.418Z,19.47
2017-05-24T06:39:42.912Z,19.56
2017-05-24T06:40:23.344Z,19.64
2017-05-24T06:41:03.776Z,19.74
2017-05-24T06:41:44.230Z,19.85
2017-05-24T06:42:24.673Z,19.97
2017-05-24T06:43:05.079Z,20.03
2017-05-24T06:43:45.475Z,20.07
2017-05-24T06:44:25.958Z,20.18
2017-05-24T06:45:06.350Z,20.32
2017-05-24T06:45:46.769Z,20.33
2017-05-24T06:46:27.191Z,20.4
2017-05-24T06:47:07.598Z,20.42
2017-05-24T06:47:48.023Z,20.53
2017-05-24T06:48:28.463Z,20.56
2017-05-24T06:49:08.901Z,20.71
2017-05-24T06:49:49.356Z,20.68
2017-05-24T06:50:29.753Z,20.78
2017-05-24T06:51:10.177Z,20.86
2017-05-24T06:51:50.635Z,21.03
2017-05-24T06:52:31.036Z,21.03
2017-05-24T06:53:11.471Z,21.15
2017-05-24T06:53:51.906Z,21.28
2017-05-24T06:54:32.339Z,21.35
2017-05-24T06:55:12.745Z,21.4
2017-05-24T06:55:53.180Z,21.56
2017-05-24T06:56:33.570Z,21.6
2017-05-24T06:57:14.039Z,21.74
2017-05-24T06:57:54.516Z,21.78
2017-05-24T06:58:34.900Z,21.84
2017-05-24T06:59:15.291Z,21.91
2017-05-24T06:59:55.727Z,21.89
2017-05-24T07:00:36.119Z,21.85
2017-05-24T07:01:16.565Z,21.88
2017-05-24T07:01:56.947Z,21.94
2017-05-24T07:02:37.436Z,21.97
2017-05-24T07:03:17.853Z,21.97
2017-05-24T07:03:58.233Z,22.14
2017-05-24T07:04:38.665Z,22.14
2017-05-24T07:05:19.043Z,22.18
2017-05-24T07:05:59.474Z,22.23
2017-05-24T07:06:39.933Z,22.28
2017-05-24T07:07:20.349Z,22.38
2017-05-24T07:08:00.733Z,22.41
2017-05-24T07:08:41.154Z,22.46
2017-05-24T07:09:21.577Z,22.61
2017-05-24T07:10:01.984Z,22.76
2017-05-24T07:10:42.419Z,22.8
2017-05-24T07:11:22.877Z,22.95
2017-05-24T07:12:03.278Z,22.99
2017-05-24T07:12:43.729Z,23.08
2017-05-24T07:13:24.169Z,23.16
2017-05-24T07:14:04.617Z,23.33
2017-05-24T07:15:57.264Z,23.89
2017-05-24T07:16:37.848Z,24.28
2017-05-24T07:17:18.653Z,24.74
2017-05-24T07:17:59.229Z,25.31
2017-05-24T07:18:39.601Z,25.89
2017-05-24T07:19:20.191Z,26.67
2017-05-24T07:20:00.782Z,27.35
2017-05-24T07:20:41.291Z,28.12
2017-05-24T07:21:23.131Z,28.84
2017-05-24T07:22:03.552Z,29.68
2017-05-24T07:22:43.979Z,30.36
2017-05-24T07:23:24.388Z,31
2017-05-24T07:24:04.784Z,31.54
2017-05-24T07:24:45.640Z,32.02
2017-05-24T07:25:26.127Z,32.59
2017-05-24T07:26:06.761Z,32.94
2017-05-24T07:26:47.685Z,33.39
2017-05-24T07:27:28.112Z,33.76
2017-05-24T07:28:08.534Z,34.06
2017-05-24T07:28:48.993Z,34.33
2017-05-24T07:30:46.920Z,35.1
2017-05-24T07:31:27.365Z,35.3
2017-05-24T07:32:07.810Z,35.53
2017-05-24T07:32:48.254Z,35.69
2017-05-24T07:33:28.702Z,35.88
2017-05-24T07:34:09.169Z,36.26
2017-05-24T07:36:07.013Z,36.94
2017-05-24T07:38:20.017Z,37.56
2017-05-24T07:39:00.449Z,37.76
2017-05-24T07:39:40.911Z,38.05
2017-05-24T07:40:21.351Z,38.12
2017-05-24T07:41:01.794Z,38.34
2017-05-24T07:41:42.217Z,38.22
2017-05-24T07:42:22.643Z,38.23
2017-05-24T07:43:03.075Z,38.29
2017-05-24T07:43:43.523Z,38.35
2017-05-24T07:44:23.917Z,38.35
2017-05-24T07:45:04.335Z,38.25
2017-05-24T07:45:44.763Z,38.16
2017-05-24T07:46:25.200Z,37.94
2017-05-24T07:47:05.662Z,37.88
2017-05-24T07:47:46.096Z,37.73
2017-05-24T07:49:38.952Z,37.41
2017-05-24T07:50:19.408Z,37.21
2017-05-24T07:50:59.860Z,37.14
2017-05-24T07:51:40.304Z,37.19
2017-05-24T07:52:20.764Z,37.19
2017-05-24T07:53:01.187Z,37.18
2017-05-24T07:53:41.633Z,37.07
2017-05-24T07:54:22.049Z,36.82
2017-05-24T07:55:02.497Z,36.48
2017-05-24T07:55:42.945Z,36.13
2017-05-24T07:56:23.502Z,35.82
2017-05-24T07:57:03.931Z,35.59
2017-05-24T07:57:44.893Z,35.42
2017-05-24T07:58:25.294Z,35.27
2017-05-24T07:59:05.738Z,35.07
2017-05-24T07:59:46.181Z,34.96
2017-05-24T08:00:26.630Z,35.01
2017-05-24T08:01:07.029Z,34.91
2017-05-24T08:01:47.538Z,34.78
2017-05-24T08:02:27.969Z,34.63
2017-05-24T08:03:08.391Z,34.47
2017-05-24T08:03:48.818Z,34.44
2017-05-24T08:05:26.340Z,34.62
2017-05-24T08:06:06.771Z,34.62
2017-05-24T08:06:47.294Z,34.73
2017-05-24T08:07:28.571Z,34.5
2017-05-24T08:08:09.664Z,34.24
2017-05-24T08:08:50.767Z,33.69
2017-05-24T08:09:31.144Z,33.05
2017-05-24T08:10:12.165Z,32.46
2017-05-24T08:10:52.556Z,31.92
2017-05-24T08:11:36.593Z,31.25
2017-05-24T08:12:19.601Z,30.62
2017-05-24T08:13:00.059Z,30.29
2017-05-24T08:13:40.493Z,29.99
2017-05-24T08:14:20.965Z,29.98
2017-05-24T08:15:01.427Z,30.2
2017-05-24T08:15:41.832Z,30.54
2017-05-24T08:16:22.278Z,31
2017-05-24T08:17:02.720Z,31.45
2017-05-24T08:17:43.124Z,31.82
2017-05-24T08:18:23.553Z,32.27
2017-05-24T08:19:04.034Z,32.68
2017-05-24T08:19:44.992Z,33.12
2017-05-24T08:20:25.406Z,33.45
2017-05-24T08:21:07.571Z,33.72
2017-05-24T08:21:47.956Z,33.66
2017-05-24T08:22:28.398Z,33.51
2017-05-24T08:23:09.803Z,33.12
2017-05-24T08:23:52.753Z,32.83
2017-05-24T08:24:33.152Z,32.54
2017-05-24T08:25:13.565Z,32.41
2017-05-24T08:25:53.980Z,32.22
2017-05-24T08:26:34.403Z,32.01
2017-05-24T08:27:14.859Z,31.7
2017-05-24T08:27:55.318Z,31.47
2017-05-24T08:28:35.745Z,31.54
2017-05-24T08:29:16.726Z,31.86
2017-05-24T08:29:57.178Z,32.08
2017-05-24T08:30:37.601Z,32.46
2017-05-24T08:31:18.033Z,32.57
2017-05-24T08:31:58.481Z,32.63
2017-05-24T08:32:38.864Z,32.45
2017-05-24T08:33:19.259Z,32.24
2017-05-24T08:33:59.688Z,31.86
2017-05-24T08:34:40.161Z,31.41
2017-05-24T08:35:20.547Z,30.89
2017-05-24T08:36:01.001Z,30.61
2017-05-24T08:36:41.453Z,30.24
2017-05-24T08:37:21.881Z,29.87
2017-05-24T08:38:02.298Z,29.57
2017-05-24T08:38:42.732Z,29.24
2017-05-24T08:39:23.172Z,28.94
2017-05-24T08:40:03.621Z,28.6
2017-05-24T08:40:44.024Z,28.47
2017-05-24T08:41:24.472Z,28.08
2017-05-24T08:42:04.915Z,27.91
2017-05-24T08:42:45.393Z,27.67
2017-05-24T08:44:33.215Z,27.26
2017-05-24T08:45:13.705Z,27.08
2017-05-24T08:45:54.190Z,27.13
2017-05-24T08:46:34.671Z,27.04
2017-05-24T08:47:15.072Z,26.91
2017-05-24T08:47:55.484Z,26.86
2017-05-24T08:48:35.880Z,27
2017-05-24T08:49:16.313Z,27
2017-05-24T08:49:56.718Z,26.98
2017-05-24T08:50:37.141Z,26.98
2017-05-24T08:51:17.766Z,27.23
2017-05-24T08:51:58.060Z,27.45
2017-05-24T08:52:38.471Z,27.68
2017-05-24T08:53:18.884Z,27.76
2017-05-24T08:53:59.336Z,27.91
2017-05-24T08:54:40.489Z,28.09
2017-05-24T08:55:20.925Z,28.16
2017-05-24T08:56:01.365Z,28.23
2017-05-24T08:56:43.451Z,28.46
2017-05-24T08:57:23.865Z,28.46
2017-05-24T08:58:04.313Z,28.53
2017-05-24T08:58:44.754Z,28.7
2017-05-24T08:59:25.274Z,28.75
2017-05-24T09:00:05.656Z,28.92
2017-05-24T09:00:46.121Z,29.13
2017-05-24T09:01:26.677Z,29.2
2017-05-24T09:02:06.966Z,29.24
2017-05-24T09:02:47.378Z,29.22
2017-05-24T09:03:27.817Z,29.25
2017-05-24T09:04:08.270Z,29.22
2017-05-24T09:04:48.722Z,29.12
2017-05-24T09:05:29.163Z,29.06
2017-05-24T09:06:09.620Z,29
2017-05-24T09:06:50.079Z,29.06
2017-05-24T09:07:30.533Z,29.12
2017-05-24T09:09:18.105Z,29.42
2017-05-24T09:09:58.513Z,29.55
2017-05-24T09:10:38.962Z,29.64
2017-05-24T09:12:31.569Z,29.81
2017-05-24T09:13:12.029Z,29.55
2017-05-24T09:13:52.470Z,29.32
2017-05-24T09:14:32.925Z,29.2
2017-05-24T09:15:13.356Z,29
2017-05-24T09:15:53.745Z,28.83